Terminal Aerodrome Forecast
Issued by NWS Shreveport, LA

Home | Current Version | Previous Version | Text Only | Print | Product List | Glossary On
Versions: 1 2 3 4 5 6 7 8 9 10 11 12 13 14 15 16 17 18 19 20 21 22 23 24 25
930
FTUS44 KSHV 180913 AAA
TAFLFK
TAF AMD
KLFK 180913Z 1809/1906 04005KT 6SM -DZ BR OVC006
      TEMPO 1809/1813 00000KT 1SM BR BKN004
     FM181300 05007KT 4SM -DZ BR OVC007
     FM181600 08007KT 6SM BR OVC007
     FM190000 15010KT P6SM OVC007=

USA.gov is the U.S. government's official web portal to all federal, state and local government web resources and services.